Terminal Aerodrome Forecast
Issued by NWS

Home | Current Version | Previous Version | Text Only | Print | Product List | Glossary On
Versions: 1 2 3 4 5 6 7 8 9 10 11 12 13 14 15 16 17 18
000
FTUS42 KJAX 280525
TAFVQQ
TAF
KVQQ 280525Z 2806/2906 04003KT P6SM VCSH SCT025 SCT050 BKN090
     FM281300 06007KT P6SM VCSH SCT025 BKN040
     FM281600 07011KT P6SM VCSH SCT030 BKN040
     FM282300 07010KT P6SM SCT040 BKN120
     FM290200 06004KT P6SM SCT040 BKN120=

USA.gov is the U.S. government's official web portal to all federal, state and local government web resources and services.